createdAt,value
2023-05-19T00:02:06.381Z,98339.59
2023-05-19T00:04:35.763Z,98337.03
2023-05-19T00:07:05.862Z,98334.38
2023-05-19T00:09:35.152Z,98331.47
2023-05-19T00:12:06.044Z,98332.66
2023-05-19T00:14:35.276Z,98335.00
2023-05-19T00:17:04.527Z,98340.91
2023-05-19T00:19:33.847Z,98335.13
2023-05-19T00:22:02.997Z,98331.16
2023-05-19T00:24:31.897Z,98333.28
2023-05-19T00:27:01.389Z,98333.00
2023-05-19T00:29:34.525Z,98333.28
2023-05-19T00:32:03.755Z,98327.84
2023-05-19T00:34:32.766Z,98326.69
2023-05-19T00:37:02.422Z,98331.28
2023-05-19T00:39:31.392Z,98335.34
2023-05-19T00:42:00.987Z,98329.88
2023-05-19T00:44:29.959Z,98336.28
2023-05-19T00:47:00.799Z,98337.69
2023-05-19T00:49:29.876Z,98338.84
2023-05-19T00:51:58.845Z,98339.50
2023-05-19T00:54:29.187Z,98336.53
2023-05-19T00:56:58.746Z,98338.66
2023-05-19T00:59:27.806Z,98327.28
2023-05-19T01:01:56.746Z,98335.31
2023-05-19T01:04:27.437Z,98334.81
2023-05-19T01:06:56.729Z,98337.47
2023-05-19T01:09:25.750Z,98334.16
2023-05-19T01:11:54.726Z,98331.25
2023-05-19T01:14:23.767Z,98324.84
2023-05-19T01:16:56.890Z,98324.75
2023-05-19T01:19:38.942Z,98325.72
2023-05-19T01:22:16.799Z,98323.47
2023-05-19T01:25:10.668Z,98317.25
2023-05-19T01:27:49.489Z,98320.47
2023-05-19T01:30:28.477Z,98320.59
2023-05-19T01:33:00.157Z,98320.25
2023-05-19T01:35:30.320Z,98321.19
2023-05-19T01:38:02.745Z,98323.56
2023-05-19T01:40:32.141Z,98319.81
2023-05-19T01:43:02.180Z,98313.75
2023-05-19T01:45:33.418Z,98323.25
2023-05-19T01:48:03.448Z,98312.75
2023-05-19T01:50:33.293Z,98315.41
2023-05-19T01:53:02.702Z,98308.59
2023-05-19T01:55:31.987Z,98314.91
2023-05-19T01:58:07.600Z,98312.03
2023-05-19T02:00:44.916Z,98320.22
2023-05-19T02:03:21.337Z,98319.91
2023-05-19T02:05:55.351Z,98315.94
2023-05-19T02:08:28.695Z,98326.13
2023-05-19T02:10:59.444Z,98329.56
2023-05-19T02:13:30.443Z,98330.06
2023-05-19T02:16:01.492Z,98335.31
2023-05-19T02:18:30.896Z,98330.06
2023-05-19T02:21:00.137Z,98332.00
2023-05-19T02:23:29.135Z,98333.06
2023-05-19T02:25:58.088Z,98326.84
2023-05-19T02:28:28.650Z,98326.75
2023-05-19T02:30:58.088Z,98329.94
2023-05-19T02:33:30.636Z,98327.47
2023-05-19T02:36:00.695Z,98325.34
2023-05-19T02:38:29.671Z,98326.19
2023-05-19T02:40:58.943Z,98325.63
2023-05-19T02:43:27.875Z,98328.28
2023-05-19T02:45:56.947Z,98324.56
2023-05-19T02:48:25.890Z,98320.59
2023-05-19T02:50:56.210Z,98317.16
2023-05-19T02:53:25.243Z,98317.34
2023-05-19T02:55:54.194Z,98314.69
2023-05-19T02:58:23.453Z,98313.59
2023-05-19T03:00:52.552Z,98316.25
2023-05-19T03:03:21.600Z,98315.63
2023-05-19T03:05:50.532Z,98317.09
2023-05-19T03:08:21.279Z,98320.00
2023-05-19T03:10:50.417Z,98316.13
2023-05-19T03:13:19.667Z,98313.91
2023-05-19T03:15:49.142Z,98309.06
2023-05-19T03:18:18.641Z,98307.03
2023-05-19T03:20:47.546Z,98307.47
2023-05-19T03:23:16.769Z,98305.91
2023-05-19T03:25:48.164Z,98294.44
2023-05-19T03:28:17.495Z,98296.00
2023-05-19T03:30:46.710Z,98295.66
2023-05-19T03:33:16.119Z,98301.31
2023-05-19T03:35:46.210Z,98306.75
2023-05-19T03:38:15.121Z,98308.47
2023-05-19T03:40:45.371Z,98316.56
2023-05-19T03:43:16.504Z,98316.31
2023-05-19T03:45:45.596Z,98321.25
2023-05-19T03:48:16.569Z,98318.19
2023-05-19T03:50:48.810Z,98321.16
2023-05-19T03:53:17.941Z,98315.00
2023-05-19T03:55:47.008Z,98315.66
2023-05-19T03:58:19.202Z,98313.25
2023-05-19T04:00:50.200Z,98316.56
2023-05-19T04:03:20.299Z,98308.66
2023-05-19T04:05:49.815Z,98310.97
2023-05-19T04:08:18.766Z,98316.50
2023-05-19T04:10:48.735Z,98313.13
2023-05-19T04:13:19.075Z,98311.25
2023-05-19T04:15:48.346Z,98313.13
2023-05-19T04:18:17.379Z,98315.78
2023-05-19T04:20:46.377Z,98302.53
2023-05-19T04:23:15.399Z,98300.84
2023-05-19T04:25:44.679Z,98299.59
2023-05-19T04:28:14.010Z,98300.97
2023-05-19T04:30:47.077Z,98307.59
2023-05-19T04:33:16.246Z,98309.66
2023-05-19T04:35:45.530Z,98305.09
2023-05-19T04:38:19.132Z,98306.06
2023-05-19T04:40:51.077Z,98302.03
2023-05-19T04:43:20.190Z,98302.75
2023-05-19T04:45:51.783Z,98300.94
2023-05-19T04:48:21.968Z,98298.81
2023-05-19T04:50:52.204Z,98300.09
2023-05-19T04:53:22.288Z,98302.03
2023-05-19T04:55:51.826Z,98300.13
2023-05-19T04:58:20.889Z,98303.78
2023-05-19T05:00:51.376Z,98297.34
2023-05-19T05:03:23.251Z,98299.91
2023-05-19T05:05:52.553Z,98295.53
2023-05-19T05:08:23.517Z,98295.00
2023-05-19T05:10:53.293Z,98304.00
2023-05-19T05:13:24.226Z,98298.09
2023-05-19T05:15:56.440Z,98299.72
2023-05-19T05:18:25.837Z,98307.63
2023-05-19T05:20:55.242Z,98309.25
2023-05-19T05:23:24.632Z,98309.56
2023-05-19T05:25:53.919Z,98309.31
2023-05-19T05:28:22.866Z,98306.31
2023-05-19T05:30:53.619Z,98316.06
2023-05-19T05:33:26.101Z,98306.53
2023-05-19T05:35:55.088Z,98313.38
2023-05-19T05:38:24.246Z,98309.38
2023-05-19T05:40:53.376Z,98303.34
2023-05-19T05:43:22.340Z,98301.06
2023-05-19T05:45:51.299Z,98306.66
2023-05-19T05:48:22.534Z,98309.09
2023-05-19T05:50:52.037Z,98307.75
2023-05-19T05:53:21.923Z,98298.47
2023-05-19T05:55:51.370Z,98304.34
2023-05-19T05:58:21.545Z,98301.13
2023-05-19T06:00:51.796Z,98302.34
2023-05-19T06:03:24.593Z,98299.72
2023-05-19T06:05:53.844Z,98295.72
2023-05-19T06:08:22.781Z,98304.56
2023-05-19T06:10:52.083Z,98296.78
2023-05-19T06:13:24.285Z,98298.88
2023-05-19T06:15:53.294Z,98294.75
2023-05-19T06:18:24.041Z,98285.53
2023-05-19T06:20:53.025Z,98295.56
2023-05-19T06:23:22.059Z,98286.31
2023-05-19T06:25:50.988Z,98289.25
2023-05-19T06:28:19.942Z,98285.81
2023-05-19T06:30:48.854Z,98285.94
2023-05-19T06:33:17.901Z,98284.00
2023-05-19T06:35:48.290Z,98280.19
2023-05-19T06:38:17.622Z,98279.47
2023-05-19T06:40:46.574Z,98281.28
2023-05-19T06:43:15.557Z,98278.72
2023-05-19T06:45:44.865Z,98277.84
2023-05-19T06:48:13.882Z,98282.25
2023-05-19T06:50:42.776Z,98287.72
2023-05-19T06:53:13.575Z,98286.25
2023-05-19T06:55:57.355Z,98282.91
2023-05-19T06:58:28.717Z,98297.03
2023-05-19T07:00:58.076Z,98281.88
2023-05-19T07:03:27.710Z,98292.16
2023-05-19T07:05:56.930Z,98276.72
2023-05-19T07:08:28.026Z,98280.25
2023-05-19T07:10:56.999Z,98276.03
2023-05-19T07:13:27.499Z,98276.72
2023-05-19T07:15:57.260Z,98284.72
2023-05-19T07:18:26.888Z,98281.91
2023-05-19T07:20:55.747Z,98280.25
2023-05-19T07:23:24.970Z,98280.16
2023-05-19T07:25:57.743Z,98270.38
2023-05-19T07:28:26.775Z,98268.34
2023-05-19T07:30:56.590Z,98270.38
2023-05-19T07:33:27.259Z,98268.34
2023-05-19T07:35:56.568Z,98271.25
2023-05-19T07:38:26.198Z,98275.22
2023-05-19T07:40:56.597Z,98274.94
2023-05-19T07:43:25.681Z,98272.63
2023-05-19T07:45:56.633Z,98269.88
2023-05-19T07:48:26.267Z,98267.59
2023-05-19T07:50:55.426Z,98277.25
2023-05-19T07:53:24.366Z,98266.66
2023-05-19T07:55:53.431Z,98265.25
2023-05-19T07:58:27.149Z,98264.78
2023-05-19T08:00:58.601Z,98267.50
2023-05-19T08:03:28.049Z,98261.00
2023-05-19T08:05:57.451Z,98266.53
2023-05-19T08:08:26.978Z,98258.41
2023-05-19T08:10:56.310Z,98251.31
2023-05-19T08:13:35.475Z,98243.38
2023-05-19T08:16:07.327Z,98247.34
2023-05-19T08:18:37.735Z,98245.06
2023-05-19T08:21:19.263Z,98246.38
2023-05-19T08:23:48.621Z,98240.97
2023-05-19T08:26:17.863Z,98232.56
2023-05-19T08:28:48.351Z,98239.06
2023-05-19T08:31:23.835Z,98238.81
2023-05-19T08:33:52.797Z,98241.38
2023-05-19T08:36:26.187Z,98231.97
2023-05-19T08:38:55.819Z,98238.53
2023-05-19T08:41:24.959Z,98238.75
2023-05-19T08:43:57.554Z,98236.44
2023-05-19T08:46:27.290Z,98223.13
2023-05-19T08:49:01.852Z,98222.34
2023-05-19T08:51:35.952Z,98221.75
2023-05-19T08:54:10.940Z,98224.41
2023-05-19T08:56:43.071Z,98221.97
2023-05-19T08:59:21.763Z,98216.56
2023-05-19T09:01:52.003Z,98214.81
2023-05-19T09:04:22.122Z,98219.88
2023-05-19T09:06:51.897Z,98217.50
2023-05-19T09:09:22.624Z,98213.31
2023-05-19T09:12:02.821Z,98212.09
2023-05-19T09:14:52.914Z,98213.72
2023-05-19T09:17:22.913Z,98207.22
2023-05-19T09:19:52.049Z,98210.94
2023-05-19T09:22:21.447Z,98213.41
2023-05-19T09:24:50.406Z,98209.84
2023-05-19T09:27:24.059Z,98205.56
2023-05-19T09:29:56.588Z,98196.88
2023-05-19T09:32:27.381Z,98194.09
2023-05-19T09:34:57.417Z,98193.78
2023-05-19T09:37:26.792Z,98180.25
2023-05-19T09:39:56.204Z,98180.88
2023-05-19T09:42:30.168Z,98180.66
2023-05-19T09:45:04.235Z,98181.66
2023-05-19T09:47:37.167Z,98188.06
2023-05-19T09:50:08.706Z,98177.63
2023-05-19T09:52:41.408Z,98186.63
2023-05-19T09:55:11.924Z,98181.97
2023-05-19T09:57:41.765Z,98178.56
2023-05-19T10:00:18.161Z,98178.19
2023-05-19T10:02:48.494Z,98173.63
2023-05-19T10:05:20.845Z,98169.28
2023-05-19T10:07:51.799Z,98165.31
2023-05-19T10:10:23.286Z,98173.06
2023-05-19T10:12:52.490Z,98173.59
2023-05-19T10:15:23.499Z,98161.63
2023-05-19T10:17:53.044Z,98166.13
2023-05-19T10:20:22.246Z,98175.22
2023-05-19T10:22:51.221Z,98173.03
2023-05-19T10:25:20.438Z,98170.00
2023-05-19T10:27:53.360Z,98165.47
2023-05-19T10:30:28.398Z,98165.19
2023-05-19T10:32:58.758Z,98173.72
2023-05-19T10:35:39.554Z,98161.03
2023-05-19T10:38:14.726Z,98161.69
2023-05-19T10:40:51.888Z,98158.94
2023-05-19T10:43:27.059Z,98156.78
2023-05-19T10:45:57.470Z,98154.22
2023-05-19T10:48:27.277Z,98153.41
2023-05-19T10:50:56.460Z,98147.38
2023-05-19T10:53:33.050Z,98141.06
2023-05-19T10:56:05.188Z,98142.75
2023-05-19T10:58:43.003Z,98144.38
2023-05-19T11:01:15.040Z,98135.75
2023-05-19T11:03:47.501Z,98142.09
2023-05-19T11:06:20.827Z,98140.00
2023-05-19T11:08:54.014Z,98144.31
2023-05-19T11:11:23.608Z,98144.31
2023-05-19T11:14:13.243Z,98128.41
2023-05-19T11:16:43.706Z,98127.72
2023-05-19T11:19:27.485Z,98121.13
2023-05-19T11:21:56.764Z,98140.44
2023-05-19T11:24:37.379Z,98128.16
2023-05-19T11:27:21.426Z,98119.53
2023-05-19T11:29:51.565Z,98129.09
2023-05-19T11:32:23.325Z,98123.19
2023-05-19T11:34:52.267Z,98120.09
2023-05-19T11:37:21.600Z,98116.16
2023-05-19T11:39:51.049Z,98116.69
2023-05-19T11:42:20.396Z,98116.72
2023-05-19T11:44:51.543Z,98110.97
2023-05-19T11:47:22.628Z,98114.53
2023-05-19T11:49:53.314Z,98109.69
2023-05-19T11:52:24.332Z,98110.97
2023-05-19T11:54:53.623Z,98107.59
2023-05-19T11:57:22.846Z,98111.81
2023-05-19T11:59:57.059Z,98106.88
2023-05-19T12:02:28.620Z,98106.00
2023-05-19T12:04:57.691Z,98100.25
2023-05-19T12:07:26.802Z,98095.84
2023-05-19T12:09:57.147Z,98085.69
2023-05-19T12:12:26.519Z,98089.63
2023-05-19T12:14:55.770Z,98089.00
2023-05-19T12:17:24.977Z,98089.19
2023-05-19T12:19:55.596Z,98086.94
2023-05-19T12:22:27.843Z,98092.53
2023-05-19T12:24:56.908Z,98071.19
2023-05-19T12:27:26.555Z,98078.31
2023-05-19T12:29:57.512Z,98069.00
2023-05-19T12:32:26.932Z,98072.28
2023-05-19T12:34:57.668Z,98075.25
2023-05-19T12:37:30.268Z,98074.63
2023-05-19T12:39:59.232Z,98058.91
2023-05-19T12:42:31.550Z,98072.03
2023-05-19T12:45:03.767Z,98059.47
2023-05-19T12:47:36.303Z,98049.94
2023-05-19T12:50:08.282Z,98045.97
2023-05-19T12:52:46.186Z,98056.19
2023-05-19T12:55:16.730Z,98050.63
2023-05-19T12:57:47.474Z,98055.34
2023-05-19T13:00:21.209Z,98052.59
2023-05-19T13:03:02.139Z,98054.88
2023-05-19T13:05:33.935Z,98059.88
2023-05-19T13:08:04.989Z,98059.25
2023-05-19T13:10:34.860Z,98064.69
2023-05-19T13:13:06.221Z,98052.25
2023-05-19T13:15:36.628Z,98044.44
2023-05-19T13:18:07.645Z,98054.50
2023-05-19T13:20:38.394Z,98037.03
2023-05-19T13:23:07.387Z,98044.81
2023-05-19T13:25:36.424Z,98052.75
2023-05-19T13:28:06.453Z,98044.06
2023-05-19T13:30:40.160Z,98045.91
2023-05-19T13:33:13.272Z,98052.28
2023-05-19T13:35:45.579Z,98046.59
2023-05-19T13:38:14.906Z,98043.50
2023-05-19T13:40:44.027Z,98035.03
2023-05-19T13:43:12.961Z,98035.88
2023-05-19T13:45:42.977Z,98039.56
2023-05-19T13:48:12.511Z,98041.63
2023-05-19T13:50:43.564Z,98033.38
2023-05-19T13:53:12.887Z,98033.78
2023-05-19T13:55:41.801Z,98034.19
2023-05-19T13:58:11.361Z,98032.34
2023-05-19T14:00:43.415Z,98013.78
2023-05-19T14:03:13.158Z,98028.91
2023-05-19T14:05:44.823Z,98025.75
2023-05-19T14:08:16.080Z,98038.91
2023-05-19T14:10:45.473Z,98018.97
2023-05-19T14:16:01.422Z,98020.47
2023-05-19T14:18:31.039Z,98017.22
2023-05-19T14:21:01.757Z,98006.69
2023-05-19T14:23:30.880Z,98015.00
2023-05-19T14:26:04.760Z,98008.97
2023-05-19T14:28:38.503Z,98015.66
2023-05-19T14:31:10.856Z,98018.25
2023-05-19T14:33:41.746Z,98012.09
2023-05-19T14:36:12.139Z,98023.13
2023-05-19T14:38:46.224Z,98017.25
2023-05-19T14:41:17.372Z,98011.47
2023-05-19T14:43:48.975Z,98009.06
2023-05-19T14:46:18.312Z,98020.97
2023-05-19T14:48:47.796Z,98017.69
2023-05-19T14:51:18.139Z,98018.59
2023-05-19T14:53:47.334Z,98010.88
2023-05-19T14:56:16.479Z,98012.59
2023-05-19T14:58:45.707Z,98009.63
2023-05-19T15:01:14.822Z,98017.69
2023-05-19T15:03:44.798Z,98015.34
2023-05-19T15:06:17.763Z,98019.66
2023-05-19T15:08:55.168Z,98017.84
2023-05-19T15:11:30.882Z,98011.84
2023-05-19T15:14:03.421Z,98014.38
2023-05-19T15:16:32.523Z,98009.47
2023-05-19T15:19:04.940Z,98006.03
2023-05-19T15:21:34.214Z,98006.72
2023-05-19T15:24:05.622Z,98004.75
2023-05-19T15:26:34.764Z,97996.47
2023-05-19T15:29:03.814Z,97994.09
2023-05-19T15:31:34.891Z,97999.91
2023-05-19T15:34:04.960Z,97995.22
2023-05-19T15:36:33.977Z,98004.25
2023-05-19T15:39:05.448Z,97998.00
2023-05-19T15:41:35.960Z,97984.56
2023-05-19T15:44:04.972Z,97985.31
2023-05-19T15:46:33.912Z,97997.47
2023-05-19T15:49:04.857Z,97994.56
2023-05-19T15:51:33.899Z,97982.44
2023-05-19T15:54:06.445Z,97985.53
2023-05-19T15:56:36.053Z,97976.09
2023-05-19T15:59:05.108Z,97973.47
2023-05-19T16:01:43.378Z,97979.63
2023-05-19T16:04:12.420Z,97994.47
2023-05-19T16:06:41.873Z,97977.91
2023-05-19T16:09:13.191Z,97981.31
2023-05-19T16:11:42.121Z,97964.31
2023-05-19T16:14:11.339Z,97982.25
2023-05-19T16:16:41.343Z,97978.09
2023-05-19T16:19:10.683Z,97979.53
2023-05-19T16:21:43.558Z,97986.50
2023-05-19T16:24:15.255Z,97981.19
2023-05-19T16:26:46.230Z,97985.53
2023-05-19T16:29:15.562Z,97982.81
2023-05-19T16:31:44.605Z,97972.19
2023-05-19T16:34:13.888Z,97980.00
2023-05-19T16:36:42.849Z,97972.88
2023-05-19T16:39:15.632Z,97977.28
2023-05-19T16:41:44.512Z,97964.59
2023-05-19T16:44:14.834Z,97962.56
2023-05-19T16:46:44.797Z,97965.81
2023-05-19T16:49:13.761Z,97972.50
2023-05-19T16:51:46.836Z,97961.84
2023-05-19T16:54:18.908Z,97962.88
2023-05-19T16:56:48.302Z,97973.72
2023-05-19T16:59:19.890Z,97962.72
2023-05-19T17:01:49.450Z,97963.03
2023-05-19T17:04:20.816Z,97961.69
2023-05-19T17:06:49.911Z,97967.59
2023-05-19T17:09:25.841Z,97972.06
2023-05-19T17:11:55.680Z,97971.69
2023-05-19T17:14:24.559Z,97964.22
2023-05-19T17:16:54.208Z,97962.38
2023-05-19T17:19:24.718Z,97958.13
2023-05-19T17:22:01.132Z,97958.47
2023-05-19T17:24:33.700Z,97962.69
2023-05-19T17:27:03.394Z,97964.06
2023-05-19T17:29:32.653Z,97960.34
2023-05-19T17:32:16.711Z,97974.38
2023-05-19T17:34:47.488Z,97964.22
2023-05-19T17:37:19.352Z,97963.31
2023-05-19T17:39:51.217Z,97972.84
2023-05-19T17:42:23.735Z,97972.81
2023-05-19T17:44:52.842Z,97974.16
2023-05-19T17:47:29.984Z,97977.38
2023-05-19T17:49:58.937Z,97976.53
2023-05-19T17:52:28.332Z,97982.25
2023-05-19T17:55:01.413Z,97978.72
2023-05-19T17:57:30.935Z,97989.34
2023-05-19T18:00:00.442Z,97991.47
2023-05-19T18:02:29.943Z,97985.13
2023-05-19T18:05:17.864Z,97996.88
2023-05-19T18:07:49.950Z,97999.50
2023-05-19T18:10:21.466Z,98001.72
2023-05-19T18:12:50.436Z,97994.91
2023-05-19T18:15:19.489Z,98005.69
2023-05-19T18:17:49.636Z,98000.59
2023-05-19T18:20:20.888Z,98000.25
2023-05-19T18:22:51.164Z,97997.88
2023-05-19T18:25:24.866Z,97997.31
2023-05-19T18:27:56.058Z,98010.22
2023-05-19T18:30:25.898Z,98005.34
2023-05-19T18:32:54.879Z,98006.94
2023-05-19T18:35:24.045Z,98013.38
2023-05-19T18:37:54.469Z,98006.38
2023-05-19T18:40:25.256Z,98003.38
2023-05-19T18:42:54.827Z,97999.50
2023-05-19T18:45:24.220Z,98008.53
2023-05-19T18:47:54.225Z,98013.53
2023-05-19T18:50:24.437Z,98011.69
2023-05-19T18:52:56.766Z,98005.13
2023-05-19T18:55:29.463Z,98016.03
2023-05-19T18:58:07.290Z,98009.38
2023-05-19T19:00:37.615Z,98019.91
2023-05-19T19:03:10.243Z,98029.09
2023-05-19T19:05:39.760Z,98023.38
2023-05-19T19:08:11.265Z,98032.97
2023-05-19T19:10:45.144Z,98038.28
2023-05-19T19:13:16.595Z,98040.53
2023-05-19T19:15:48.394Z,98043.16
2023-05-19T19:18:21.446Z,98050.56
2023-05-19T19:20:52.064Z,98056.28
2023-05-19T19:23:26.517Z,98055.34
2023-05-19T19:26:00.744Z,98056.66
2023-05-19T19:28:31.104Z,98047.91
2023-05-19T19:31:04.577Z,98051.13
2023-05-19T19:33:33.723Z,98051.44
2023-05-19T19:36:06.505Z,98054.19
2023-05-19T19:38:51.552Z,98059.34
2023-05-19T19:41:28.164Z,98056.69
2023-05-19T19:43:57.863Z,98062.19
2023-05-19T19:46:37.918Z,98073.06
2023-05-19T19:49:08.774Z,98075.50
2023-05-19T19:51:44.572Z,98083.16
2023-05-19T19:54:20.939Z,98080.06
2023-05-19T19:56:58.478Z,98085.31
2023-05-19T19:59:36.274Z,98084.34
2023-05-19T20:02:11.856Z,98084.50
2023-05-19T20:04:43.945Z,98081.94
2023-05-19T20:07:14.022Z,98083.41
2023-05-19T20:09:44.403Z,98073.47
2023-05-19T20:12:23.845Z,98082.44
2023-05-19T20:14:55.899Z,98083.69
2023-05-19T20:17:31.613Z,98084.84
2023-05-19T20:20:05.746Z,98079.03
2023-05-19T20:22:38.888Z,98085.56
2023-05-19T20:25:14.332Z,98083.56
2023-05-19T20:27:55.804Z,98084.69
2023-05-19T20:30:30.722Z,98081.47
2023-05-19T20:33:08.808Z,98092.09
2023-05-19T20:35:43.292Z,98094.34
2023-05-19T20:38:15.144Z,98096.63
2023-05-19T20:40:48.077Z,98102.16
2023-05-19T20:43:21.704Z,98104.16
2023-05-19T20:45:51.693Z,98103.75
2023-05-19T20:48:22.294Z,98101.59
2023-05-19T20:50:57.449Z,98106.53
2023-05-19T20:53:36.941Z,98099.41
2023-05-19T20:56:15.489Z,98105.22
2023-05-19T20:58:48.762Z,98101.53
2023-05-19T21:01:20.795Z,98105.22
2023-05-19T21:03:53.885Z,98107.63
2023-05-19T21:06:26.364Z,98112.16
2023-05-19T21:08:59.336Z,98107.59
2023-05-19T21:11:29.555Z,98112.28
2023-05-19T21:14:05.422Z,98112.81
2023-05-19T21:16:39.138Z,98116.50
2023-05-19T21:19:10.799Z,98115.53
2023-05-19T21:21:49.729Z,98118.47
2023-05-19T21:24:19.716Z,98120.47
2023-05-19T21:26:54.414Z,98122.28
2023-05-19T21:29:32.883Z,98114.63
2023-05-19T21:32:02.831Z,98119.63
2023-05-19T21:34:32.624Z,98116.59
2023-05-19T21:37:03.282Z,98125.09
2023-05-19T21:39:33.345Z,98119.81
2023-05-19T21:42:06.082Z,98123.50
2023-05-19T21:44:37.077Z,98120.50
2023-05-19T21:47:21.961Z,98121.06
2023-05-19T21:49:51.498Z,98118.31
2023-05-19T21:52:20.526Z,98119.06
2023-05-19T21:54:55.264Z,98117.47
2023-05-19T21:57:27.227Z,98121.44
2023-05-19T22:00:04.076Z,98116.31
2023-05-19T22:02:34.781Z,98116.47
2023-05-19T22:05:05.647Z,98107.59
2023-05-19T22:07:37.884Z,98107.84
2023-05-19T22:10:17.042Z,98106.44
2023-05-19T22:12:49.315Z,98104.84
2023-05-19T22:15:21.205Z,98107.84
2023-05-19T22:17:50.654Z,98105.81
2023-05-19T22:20:21.647Z,98111.06
2023-05-19T22:22:54.863Z,98110.22
2023-05-19T22:25:25.058Z,98110.59
2023-05-19T22:27:56.013Z,98109.69
2023-05-19T22:30:39.314Z,98106.91
2023-05-19T22:33:10.750Z,98112.22
2023-05-19T22:35:41.526Z,98105.81
2023-05-19T22:38:12.093Z,98102.31
2023-05-19T22:40:42.266Z,98103.72
2023-05-19T22:43:16.341Z,98098.00
2023-05-19T22:45:51.904Z,98100.38
2023-05-19T22:48:23.414Z,98098.00
2023-05-19T22:50:53.785Z,98106.84
2023-05-19T22:53:23.838Z,98105.22
2023-05-19T22:56:04.100Z,98101.44
2023-05-19T22:58:33.718Z,98100.97
2023-05-19T23:01:06.792Z,98100.38
2023-05-19T23:03:43.374Z,98094.16
2023-05-19T23:06:13.284Z,98096.50
2023-05-19T23:08:44.782Z,98085.75
2023-05-19T23:11:14.975Z,98092.69
2023-05-19T23:13:44.060Z,98089.41
2023-05-19T23:16:16.254Z,98092.63
2023-05-19T23:18:46.483Z,98095.38
2023-05-19T23:21:20.161Z,98091.13
2023-05-19T23:23:49.606Z,98096.41
2023-05-19T23:26:18.882Z,98089.09
2023-05-19T23:28:48.252Z,98089.88
2023-05-19T23:31:20.099Z,98091.81
2023-05-19T23:33:50.553Z,98086.28
2023-05-19T23:36:20.284Z,98081.69
2023-05-19T23:38:50.534Z,98082.34
2023-05-19T23:41:19.972Z,98085.94
2023-05-19T23:43:49.695Z,98078.88
2023-05-19T23:46:20.222Z,98067.53
2023-05-19T23:48:49.843Z,98078.03
2023-05-19T23:51:19.238Z,98077.03
2023-05-19T23:53:51.624Z,98071.19
2023-05-19T23:56:22.006Z,98074.53
2023-05-19T23:58:51.918Z,98084.69
